Nocc Caspian — V7YT4 — position and weather

sailwx.info

Track history (hours):
 
Tides and Currents Weather Stations Pressure Air Temp Water Temp Dewpoint Dewpoint Depression Visibility Wind Speed Wind Dir Waves Ship Positions

Nocc Caspian

Last reported at 2017-Feb-21 18:27 UTC. Time now 2017-Feb-27 22:44 UTC.
Position N 09°11' W 079°53'.

Length 184 m; draft 7.7 m.

Type: Cargo ship. MMSI: 538004728.

Date/timePositionNaut miles runAvg speedWind from/ knotsBaromVisibWave heightAir tempDewpointWater temp
2017-Feb-21 18:27N 09°11' W 079°53'5 5.9
2017-Feb-21 17:33N 09°16' W 079°55'0 0.5
2017-Feb-21 16:33N 09°17' W 079°55'1 1.2
2017-Feb-21 15:33N 09°18' W 079°55'5 4.9
2017-Feb-21 14:33N 09°23' W 079°55'3 3.4
2017-Feb-21 13:32N 09°26' W 079°56'0 0.0
2017-Feb-21 12:17N 09°26' W 079°56'0 0.0
2017-Feb-21 11:32N 09°26' W 079°56'0 0.0
2017-Feb-21 08:05N 09°26' W 079°56'0 0.1
2017-Feb-21 07:32N 09°26' W 079°56'0 0.0
2017-Feb-21 06:32N 09°26' W 079°56'0 0.0
2017-Feb-21 05:32N 09°26' W 079°56'0 0.0
2017-Feb-21 04:32N 09°26' W 079°56'0 0.0
2017-Feb-21 03:32N 09°26' W 079°56'0 0.0
2017-Feb-21 02:32N 09°26' W 079°56'0 0.0
2017-Feb-21 01:32N 09°26' W 079°56'0 0.0
2017-Feb-21 00:32N 09°26' W 079°56'0 0.0
2017-Feb-20 23:32N 09°26' W 079°56'0 0.0
2017-Feb-20 22:32N 09°26' W 079°56'0 0.0
2017-Feb-20 21:32N 09°26' W 079°56'0 0.0
2017-Feb-20 20:32N 09°26' W 079°56'0 0.0
2017-Feb-20 19:32N 09°26' W 079°56'0 0.0
2017-Feb-20 18:29N 09°26' W 079°56'0 0.0
2017-Feb-20 17:32N 09°26' W 079°56'0 0.0
2017-Feb-20 16:32N 09°26' W 079°56'0 0.0
2017-Feb-20 15:32N 09°26' W 079°56'0 0.0
2017-Feb-20 14:32N 09°26' W 079°56'0 0.0
2017-Feb-20 13:29N 09°26' W 079°56'0 0.0
2017-Feb-20 12:32N 09°26' W 079°56'0 0.0
2017-Feb-20 11:29N 09°26' W 079°56'0 0.0
2017-Feb-20 10:26N 09°26' W 079°56'0 0.0
2017-Feb-20 09:32N 09°26' W 079°56'0 0.0
2017-Feb-20 08:23N 09°26' W 079°56'0 0.0
2017-Feb-20 07:32N 09°26' W 079°56'0 0.0
2017-Feb-20 06:29N 09°26' W 079°56'0 0.0
2017-Feb-20 05:23N 09°26' W 079°56'0 0.0
2017-Feb-20 04:32N 09°26' W 079°56'0 0.0
2017-Feb-20 03:11N 09°26' W 079°56'0 0.0
2017-Feb-20 02:26N 09°26' W 079°56'0 0.0
2017-Feb-20 01:11N 09°26' W 079°56'0 0.0
2017-Feb-20 00:11N 09°26' W 079°56'0 0.1
2017-Feb-19 23:32N 09°26' W 079°56'0 0.0
2017-Feb-19 22:32N 09°26' W 079°56'0 0.0
2017-Feb-19 21:29N 09°26' W 079°56'0 0.0
2017-Feb-19 20:26N 09°26' W 079°56'0 0.0
2017-Feb-19 19:32N 09°26' W 079°56'0 0.0
2017-Feb-19 18:29N 09°26' W 079°56'0 0.0
2017-Feb-19 17:32N 09°26' W 079°56'0 0.1
2017-Feb-19 16:33N 09°26' W 079°56'3 3.2
2017-Feb-19 15:33N 09°29' W 079°54'  
Track history (hours):
 
Tides and Currents Weather Stations Pressure Air Temp Water Temp Dewpoint Dewpoint Depression Visibility Wind Speed Wind Dir Waves Ship Positions

Nocc Caspian

Last reported at 2017-Feb-21 18:27 UTC. Time now 2017-Feb-27 22:44 UTC.
Position N 09°11' W 079°53'.

Length 184 m; draft 7.7 m.

Type: Cargo ship. MMSI: 538004728.

Date/timePositionNaut miles runAvg speedWind from/ knotsBaromVisibWave heightAir tempDewpointWater temp
2017-Feb-21 18:27N 09°11' W 079°53'5 5.9
2017-Feb-21 17:33N 09°16' W 079°55'0 0.5
2017-Feb-21 16:33N 09°17' W 079°55'1 1.2
2017-Feb-21 15:33N 09°18' W 079°55'5 4.9
2017-Feb-21 14:33N 09°23' W 079°55'3 3.4
2017-Feb-21 13:32N 09°26' W 079°56'0 0.0
2017-Feb-21 12:17N 09°26' W 079°56'0 0.0
2017-Feb-21 11:32N 09°26' W 079°56'0 0.0
2017-Feb-21 08:05N 09°26' W 079°56'0 0.1
2017-Feb-21 07:32N 09°26' W 079°56'0 0.0
2017-Feb-21 06:32N 09°26' W 079°56'0 0.0
2017-Feb-21 05:32N 09°26' W 079°56'0 0.0
2017-Feb-21 04:32N 09°26' W 079°56'0 0.0
2017-Feb-21 03:32N 09°26' W 079°56'0 0.0
2017-Feb-21 02:32N 09°26' W 079°56'0 0.0
2017-Feb-21 01:32N 09°26' W 079°56'0 0.0
2017-Feb-21 00:32N 09°26' W 079°56'0 0.0
2017-Feb-20 23:32N 09°26' W 079°56'0 0.0
2017-Feb-20 22:32N 09°26' W 079°56'0 0.0
2017-Feb-20 21:32N 09°26' W 079°56'0 0.0
2017-Feb-20 20:32N 09°26' W 079°56'0 0.0
2017-Feb-20 19:32N 09°26' W 079°56'0 0.0
2017-Feb-20 18:29N 09°26' W 079°56'0 0.0
2017-Feb-20 17:32N 09°26' W 079°56'0 0.0
2017-Feb-20 16:32N 09°26' W 079°56'0 0.0
2017-Feb-20 15:32N 09°26' W 079°56'0 0.0
2017-Feb-20 14:32N 09°26' W 079°56'0 0.0
2017-Feb-20 13:29N 09°26' W 079°56'0 0.0
2017-Feb-20 12:32N 09°26' W 079°56'0 0.0
2017-Feb-20 11:29N 09°26' W 079°56'0 0.0
2017-Feb-20 10:26N 09°26' W 079°56'0 0.0
2017-Feb-20 09:32N 09°26' W 079°56'0 0.0
2017-Feb-20 08:23N 09°26' W 079°56'0 0.0
2017-Feb-20 07:32N 09°26' W 079°56'0 0.0
2017-Feb-20 06:29N 09°26' W 079°56'0 0.0
2017-Feb-20 05:23N 09°26' W 079°56'0 0.0
2017-Feb-20 04:32N 09°26' W 079°56'0 0.0
2017-Feb-20 03:11N 09°26' W 079°56'0 0.0
2017-Feb-20 02:26N 09°26' W 079°56'0 0.0
2017-Feb-20 01:11N 09°26' W 079°56'0 0.0
2017-Feb-20 00:11N 09°26' W 079°56'0 0.1
2017-Feb-19 23:32N 09°26' W 079°56'0 0.0
2017-Feb-19 22:32N 09°26' W 079°56'0 0.0
2017-Feb-19 21:29N 09°26' W 079°56'0 0.0
2017-Feb-19 20:26N 09°26' W 079°56'0 0.0
2017-Feb-19 19:32N 09°26' W 079°56'0 0.0
2017-Feb-19 18:29N 09°26' W 079°56'0 0.0
2017-Feb-19 17:32N 09°26' W 079°56'0 0.1
2017-Feb-19 16:33N 09°26' W 079°56'3 3.2
2017-Feb-19 15:33N 09°29' W 079°54'  

Dump ship's entire track history